createdAt,value
2019-04-23T00:01:28.483Z,14.40
2019-04-23T00:03:51.583Z,14.40
2019-04-23T00:06:47.631Z,14.30
2019-04-23T00:09:09.212Z,14.10
2019-04-23T00:11:47.869Z,14.10
2019-04-23T00:14:05.746Z,14.10
2019-04-23T00:18:55.857Z,14.00
2019-04-23T00:21:46.057Z,14.00
2019-04-23T00:25:07.186Z,14.00
2019-04-23T00:27:24.992Z,14.00
2019-04-23T00:29:48.407Z,14.00
2019-04-23T00:32:15.131Z,14.00
2019-04-23T00:37:18.709Z,13.90
2019-04-23T00:39:46.803Z,13.80
2019-04-23T00:42:17.261Z,13.70
2019-04-23T00:44:54.302Z,13.70
2019-04-23T00:47:22.881Z,13.70
2019-04-23T00:49:51.679Z,13.70
2019-04-23T00:52:23.250Z,13.70
2019-04-23T00:54:49.139Z,13.70
2019-04-23T00:57:24.439Z,13.60
2019-04-23T00:59:56.764Z,13.60
2019-04-23T01:02:24.041Z,13.70
2019-04-23T01:04:59.677Z,13.70
2019-04-23T01:07:18.928Z,13.60
2019-04-23T01:12:31.679Z,13.60
2019-04-23T01:14:56.284Z,13.60
2019-04-23T01:17:35.036Z,13.60
2019-04-23T01:20:14.571Z,13.60
2019-04-23T01:22:27.422Z,13.50
2019-04-23T01:25:13.469Z,13.50
2019-04-23T01:28:02.417Z,13.30
2019-04-23T01:30:34.383Z,13.20
2019-04-23T01:33:10.970Z,13.20
2019-04-23T01:35:36.556Z,13.00
2019-04-23T01:38:04.493Z,13.00
2019-04-23T01:41:07.809Z,13.00
2019-04-23T01:43:09.234Z,12.90
2019-04-23T01:45:56.242Z,12.90
2019-04-23T01:48:04.799Z,12.80
2019-04-23T01:50:48.692Z,12.70
2019-04-23T01:55:47.275Z,12.40
2019-04-23T02:00:49.414Z,12.30
2019-04-23T02:03:15.262Z,12.20
2019-04-23T02:05:48.064Z,12.10
2019-04-23T02:08:20.713Z,12.00
2019-04-23T02:13:27.281Z,12.00
2019-04-23T02:15:53.468Z,12.00
2019-04-23T02:18:23.399Z,12.00
2019-04-23T02:21:10.624Z,12.00
2019-04-23T02:23:59.775Z,12.00
2019-04-23T02:26:26.303Z,11.90
2019-04-23T02:28:53.229Z,11.90
2019-04-23T02:39:02.825Z,11.80
2019-04-23T02:44:05.048Z,11.70
2019-04-23T02:46:55.921Z,11.70
2019-04-23T02:49:07.121Z,11.60
2019-04-23T02:54:19.741Z,11.50
2019-04-23T02:56:37.615Z,11.50
2019-04-23T02:59:16.390Z,11.50
2019-04-23T03:04:10.318Z,11.30
2019-04-23T03:06:38.116Z,11.20
2019-04-23T03:09:27.737Z,11.10
2019-04-23T03:16:55.090Z,11.00
2019-04-23T03:19:37.793Z,10.90
2019-04-23T03:22:06.008Z,10.80
2019-04-23T03:29:55.327Z,10.50
2019-04-23T03:37:33.895Z,10.40
2019-04-23T03:42:22.293Z,10.40
2019-04-23T03:44:56.212Z,10.40
2019-04-23T03:50:09.314Z,10.30
2019-04-23T03:55:04.059Z,10.30
2019-04-23T04:05:00.693Z,10.20
2019-04-23T04:09:59.284Z,10.10
2019-04-23T04:25:09.186Z,10.00
2019-04-23T04:27:46.019Z,10.00
2019-04-23T04:30:14.592Z,10.10
2019-04-23T04:32:59.919Z,10.10
2019-04-23T04:37:56.374Z,10.10
2019-04-23T04:42:41.816Z,10.10
2019-04-23T04:45:23.245Z,10.20
2019-04-23T04:47:44.850Z,10.20
2019-04-23T05:00:30.082Z,10.20
2019-04-23T05:07:48.373Z,10.20
2019-04-23T05:10:25.192Z,10.30
2019-04-23T05:12:50.391Z,10.30
2019-04-23T05:15:25.200Z,10.20
2019-04-23T05:20:50.189Z,10.20
2019-04-23T05:23:19.218Z,10.30
2019-04-23T05:25:46.290Z,10.30
2019-04-23T05:28:13.842Z,10.30
2019-04-23T05:30:46.388Z,10.30
2019-04-23T05:33:18.884Z,10.30
2019-04-23T05:36:06.118Z,10.40
2019-04-23T05:38:29.965Z,10.40
2019-04-23T05:43:19.092Z,10.40
2019-04-23T05:45:46.801Z,10.40
2019-04-23T05:48:20.078Z,10.50
2019-04-23T05:50:59.098Z,10.40
2019-04-23T05:53:18.615Z,10.50
2019-04-23T05:55:59.795Z,10.50
2019-04-23T05:58:30.044Z,10.50
2019-04-23T06:01:05.785Z,10.50
2019-04-23T06:03:54.406Z,10.50
2019-04-23T06:06:08.170Z,10.50
2019-04-23T06:11:02.260Z,10.50
2019-04-23T06:13:35.965Z,10.60
2019-04-23T06:15:59.676Z,10.60
2019-04-23T06:18:38.942Z,10.60
2019-04-23T06:21:05.652Z,10.70
2019-04-23T06:23:41.826Z,10.80
2019-04-23T06:26:20.185Z,10.80
2019-04-23T06:28:37.260Z,10.80
2019-04-23T06:31:07.841Z,11.00
2019-04-23T06:38:44.913Z,11.20
2019-04-23T06:44:14.442Z,11.30
2019-04-23T06:46:39.541Z,11.40
2019-04-23T06:49:04.128Z,11.40
2019-04-23T06:51:44.073Z,11.50
2019-04-23T06:54:04.493Z,11.60
2019-04-23T06:56:44.272Z,11.70
2019-04-23T06:59:12.034Z,11.90
2019-04-23T07:01:51.601Z,11.90
2019-04-23T07:04:10.683Z,12.20
2019-04-23T07:07:16.368Z,12.20
2019-04-23T07:14:02.658Z,12.40
2019-04-23T07:16:39.931Z,12.50
2019-04-23T07:19:27.293Z,12.50
2019-04-23T07:26:42.473Z,12.70
2019-04-23T07:29:15.658Z,12.80
2019-04-23T07:31:51.513Z,12.90
2019-04-23T07:34:13.748Z,12.90
2019-04-23T07:36:47.380Z,12.90
2019-04-23T07:40:09.656Z,13.00
2019-04-23T07:42:28.103Z,13.10
2019-04-23T07:48:06.519Z,13.40
2019-04-23T07:50:37.743Z,13.40
2019-04-23T07:53:06.781Z,13.60
2019-04-23T07:55:34.702Z,13.70
2019-04-23T07:58:06.655Z,13.70
2019-04-23T08:00:45.205Z,13.90
2019-04-23T08:03:10.681Z,13.90
2019-04-23T08:05:34.324Z,14.00
2019-04-23T08:08:03.483Z,14.10
2019-04-23T08:10:35.807Z,14.20
2019-04-23T08:13:07.976Z,14.30
2019-04-23T08:15:38.095Z,14.40
2019-04-23T08:18:06.887Z,14.60
2019-04-23T08:20:42.366Z,14.60
2019-04-23T08:23:22.214Z,14.80
2019-04-23T08:26:13.511Z,14.90
2019-04-23T08:28:54.665Z,15.00
2019-04-23T08:31:15.138Z,15.20
2019-04-23T08:33:49.774Z,15.20
2019-04-23T08:36:20.108Z,15.60
2019-04-23T08:38:44.664Z,15.60
2019-04-23T08:41:33.888Z,15.90
2019-04-23T08:46:46.260Z,16.10
2019-04-23T08:49:20.017Z,16.30
2019-04-23T08:51:49.083Z,16.50
2019-04-23T08:54:13.300Z,16.60
2019-04-23T08:56:41.305Z,16.80
2019-04-23T08:59:22.893Z,17.00
2019-04-23T09:01:48.048Z,17.20
2019-04-23T09:04:08.240Z,17.30
2019-04-23T09:06:45.338Z,17.30
2019-04-23T09:09:13.213Z,17.30
2019-04-23T09:11:45.888Z,17.30
2019-04-23T09:14:07.227Z,17.40
2019-04-23T09:16:54.447Z,17.40
2019-04-23T09:19:32.375Z,17.60
2019-04-23T09:21:59.188Z,17.60
2019-04-23T09:24:11.381Z,17.60
2019-04-23T09:26:53.319Z,17.70
2019-04-23T09:29:20.368Z,17.70
2019-04-23T09:32:13.528Z,17.70
2019-04-23T09:35:02.335Z,17.70
2019-04-23T09:43:12.222Z,18.10
2019-04-23T09:46:00.958Z,18.10
2019-04-23T09:48:44.233Z,18.00
2019-04-23T09:55:45.571Z,18.20
2019-04-23T09:58:22.200Z,18.40
2019-04-23T10:01:23.759Z,18.50
2019-04-23T10:03:43.177Z,18.80
2019-04-23T10:06:09.897Z,18.80
2019-04-23T10:08:36.473Z,18.90
2019-04-23T10:11:03.037Z,18.90
2019-04-23T10:13:32.495Z,19.00
2019-04-23T10:16:02.316Z,19.10
2019-04-23T10:18:33.073Z,19.30
2019-04-23T10:21:03.388Z,19.40
2019-04-23T10:23:33.459Z,19.60
2019-04-23T10:28:49.934Z,19.70
2019-04-23T10:31:18.944Z,19.70
2019-04-23T10:33:48.264Z,19.70
2019-04-23T10:36:21.552Z,19.70
2019-04-23T10:38:54.777Z,19.70
2019-04-23T10:41:20.111Z,19.70
2019-04-23T10:43:54.933Z,19.60
2019-04-23T10:46:59.859Z,19.60
2019-04-23T10:54:45.700Z,20.00
2019-04-23T10:57:16.656Z,19.90
2019-04-23T11:02:36.326Z,20.10
2019-04-23T11:05:04.339Z,20.20
2019-04-23T11:15:26.994Z,20.40
2019-04-23T11:20:33.837Z,20.50
2019-04-23T11:25:31.865Z,20.70
2019-04-23T11:27:53.871Z,20.80
2019-04-23T11:33:00.801Z,21.00
2019-04-23T11:35:34.003Z,20.90
2019-04-23T11:38:22.065Z,20.90
2019-04-23T11:42:57.936Z,21.10
2019-04-23T11:45:41.414Z,21.10
2019-04-23T11:52:56.405Z,21.00
2019-04-23T11:55:41.225Z,21.00
2019-04-23T12:00:44.842Z,21.30
2019-04-23T12:03:17.316Z,21.60
2019-04-23T12:06:25.039Z,21.70
2019-04-23T12:08:56.632Z,21.80
2019-04-23T12:14:37.136Z,21.60
2019-04-23T12:22:15.115Z,21.60
2019-04-23T12:29:44.441Z,22.00
2019-04-23T12:35:01.286Z,22.30
2019-04-23T12:37:34.937Z,22.50
2019-04-23T12:40:11.282Z,22.50
2019-04-23T12:45:17.932Z,22.70
2019-04-23T12:50:37.830Z,23.00
2019-04-23T12:52:41.358Z,23.10
2019-04-23T12:57:40.506Z,23.20
2019-04-23T13:00:17.508Z,23.20
2019-04-23T13:02:46.491Z,23.30
2019-04-23T13:05:16.656Z,23.30
2019-04-23T13:07:43.673Z,23.30
2019-04-23T13:12:50.300Z,23.40
2019-04-23T13:15:18.893Z,23.40
2019-04-23T13:20:23.098Z,23.50
2019-04-23T13:22:58.065Z,23.60
2019-04-23T13:28:36.122Z,23.80
2019-04-23T13:30:56.885Z,23.90
2019-04-23T13:36:01.113Z,24.00
2019-04-23T13:38:33.514Z,24.00
2019-04-23T13:48:24.588Z,24.40
2019-04-23T13:56:02.128Z,24.50
2019-04-23T13:58:34.477Z,24.70
2019-04-23T14:01:07.429Z,24.80
2019-04-23T14:06:16.552Z,25.20
2019-04-23T14:08:47.271Z,25.30
2019-04-23T14:16:23.426Z,25.60
2019-04-23T14:24:07.888Z,25.70
2019-04-23T14:26:25.820Z,25.70
2019-04-23T14:36:26.979Z,26.80
2019-04-23T14:39:03.386Z,27.20
2019-04-23T14:41:23.526Z,27.70
2019-04-23T14:48:57.570Z,28.00
2019-04-23T14:51:47.818Z,27.90
2019-04-23T14:53:52.183Z,28.20
2019-04-23T14:56:26.475Z,28.50
2019-04-23T14:59:01.636Z,28.50
2019-04-23T15:03:55.939Z,27.60
2019-04-23T15:06:36.341Z,27.60
2019-04-23T15:11:34.534Z,26.90
2019-04-23T15:14:06.163Z,26.50
2019-04-23T15:16:39.668Z,26.50
2019-04-23T15:24:25.245Z,25.60
2019-04-23T15:27:46.776Z,25.60
2019-04-23T15:29:04.576Z,25.50
2019-04-23T15:31:59.342Z,25.10
2019-04-23T15:34:18.978Z,25.20
2019-04-23T15:37:00.880Z,25.10
2019-04-23T15:39:31.034Z,25.00
2019-04-23T15:44:16.156Z,24.80
2019-04-23T15:49:26.572Z,24.80
2019-04-23T15:54:37.085Z,24.70
2019-04-23T16:01:41.911Z,24.60
2019-04-23T16:04:07.227Z,24.50
2019-04-23T16:06:38.582Z,24.30
2019-04-23T16:09:26.149Z,24.30
2019-04-23T16:11:59.745Z,24.30
2019-04-23T16:14:54.923Z,24.30
2019-04-23T16:17:18.712Z,24.30
2019-04-23T16:20:19.447Z,24.20
2019-04-23T16:22:36.772Z,24.10
2019-04-23T16:27:41.817Z,24.00
2019-04-23T16:30:14.236Z,24.00
2019-04-23T16:32:57.895Z,23.90
2019-04-23T16:37:58.876Z,23.70
2019-04-23T16:40:31.872Z,23.70
2019-04-23T16:42:58.048Z,23.30
2019-04-23T16:45:22.932Z,23.30
2019-04-23T16:47:59.659Z,22.90
2019-04-23T16:50:29.223Z,22.80
2019-04-23T16:53:00.266Z,22.70
2019-04-23T16:55:29.475Z,22.70
2019-04-23T16:58:03.595Z,22.60
2019-04-23T17:01:01.302Z,22.60
2019-04-23T17:03:11.289Z,22.60
2019-04-23T17:05:45.475Z,22.60
2019-04-23T17:10:42.827Z,22.10
2019-04-23T17:13:14.246Z,22.10
2019-04-23T17:15:53.501Z,22.10
2019-04-23T17:18:17.320Z,22.10
2019-04-23T17:23:29.409Z,22.00
2019-04-23T17:25:49.785Z,21.80
2019-04-23T17:31:03.996Z,21.70
2019-04-23T17:33:27.499Z,21.70
2019-04-23T17:42:01.514Z,21.60
2019-04-23T17:46:50.482Z,21.60
2019-04-23T17:49:21.893Z,21.60
2019-04-23T17:52:01.062Z,21.60
2019-04-23T17:54:24.621Z,21.60
2019-04-23T18:00:03.772Z,21.50
2019-04-23T18:02:46.840Z,21.50
2019-04-23T18:05:54.346Z,21.40
2019-04-23T18:07:23.125Z,21.40
2019-04-23T18:09:49.554Z,21.40
2019-04-23T18:12:25.446Z,21.40
2019-04-23T18:14:48.326Z,21.30
2019-04-23T18:17:17.769Z,21.30
2019-04-23T18:20:12.420Z,21.20
2019-04-23T18:23:04.779Z,21.20
2019-04-23T18:25:37.604Z,21.20
2019-04-23T18:28:01.694Z,21.10
2019-04-23T18:36:25.411Z,21.00
2019-04-23T18:38:59.279Z,20.90
2019-04-23T18:41:29.590Z,20.80
2019-04-23T18:44:02.961Z,20.70
2019-04-23T18:46:38.123Z,20.70
2019-04-23T18:49:22.016Z,20.60
2019-04-23T18:51:37.136Z,20.60
2019-04-23T18:56:56.096Z,20.50
2019-04-23T18:59:11.003Z,20.30
2019-04-23T19:02:05.124Z,20.30
2019-04-23T19:04:50.415Z,20.20
2019-04-23T19:06:51.316Z,20.20
2019-04-23T19:12:48.734Z,20.00
2019-04-23T19:15:28.622Z,20.00
2019-04-23T19:17:50.475Z,19.90
2019-04-23T19:20:45.149Z,19.80
2019-04-23T19:23:04.676Z,19.80
2019-04-23T19:25:25.962Z,19.80
2019-04-23T19:28:30.282Z,19.80
2019-04-23T19:33:14.294Z,19.80
2019-04-23T19:38:13.496Z,19.80
2019-04-23T19:43:11.951Z,19.70
2019-04-23T19:45:49.446Z,19.70
2019-04-23T19:48:25.648Z,19.70
2019-04-23T19:51:03.899Z,19.70
2019-04-23T19:53:29.676Z,19.70
2019-04-23T19:56:04.363Z,19.60
2019-04-23T19:58:24.395Z,19.60
2019-04-23T20:05:55.618Z,19.50
2019-04-23T20:08:34.336Z,19.40
2019-04-23T20:10:57.451Z,19.40
2019-04-23T20:13:35.023Z,19.30
2019-04-23T20:18:41.471Z,19.20
2019-04-23T20:23:48.857Z,19.10
2019-04-23T20:34:24.219Z,19.00
2019-04-23T20:36:46.149Z,18.90
2019-04-23T20:39:16.465Z,18.90
2019-04-23T20:44:35.040Z,18.80
2019-04-23T20:47:13.294Z,18.80
2019-04-23T20:49:40.738Z,18.80
2019-04-23T20:57:22.865Z,18.80
2019-04-23T21:00:01.787Z,18.80
2019-04-23T21:05:20.863Z,18.80
2019-04-23T21:10:32.665Z,18.70
2019-04-23T21:20:36.691Z,18.50
2019-04-23T21:28:14.162Z,18.30
2019-04-23T21:33:15.722Z,18.30
2019-04-23T21:41:30.337Z,18.30
2019-04-23T21:51:30.944Z,18.30
2019-04-23T21:53:51.741Z,18.30
2019-04-23T21:56:21.524Z,18.30
2019-04-23T22:04:08.600Z,18.30
2019-04-23T22:09:16.078Z,18.30
2019-04-23T22:16:35.969Z,18.20
2019-04-23T22:21:41.211Z,18.20
2019-04-23T22:24:05.596Z,18.20
2019-04-23T22:34:15.776Z,18.20
2019-04-23T22:36:39.289Z,18.20
2019-04-23T22:39:09.857Z,18.10
2019-04-23T22:41:46.092Z,18.20
2019-04-23T22:49:33.397Z,18.10
2019-04-23T22:54:25.960Z,18.10
2019-04-23T22:57:00.583Z,18.10
2019-04-23T23:02:16.315Z,18.10
2019-04-23T23:04:51.417Z,18.10
2019-04-23T23:07:13.628Z,18.00
2019-04-23T23:12:14.363Z,18.00
2019-04-23T23:14:57.444Z,18.00
2019-04-23T23:17:16.777Z,17.70
2019-04-23T23:20:01.156Z,17.50
2019-04-23T23:22:18.491Z,17.50
2019-04-23T23:25:02.645Z,17.50
2019-04-23T23:27:16.708Z,17.40
2019-04-23T23:29:58.409Z,17.40
2019-04-23T23:32:23.180Z,17.30
2019-04-23T23:35:11.307Z,17.30
2019-04-23T23:37:19.140Z,17.10
2019-04-23T23:39:59.975Z,17.10
2019-04-23T23:42:22.380Z,17.00
2019-04-23T23:45:06.971Z,16.90
2019-04-23T23:47:18.079Z,16.80
2019-04-23T23:50:00.904Z,16.80
2019-04-23T23:52:30.309Z,16.80
2019-04-23T23:54:59.393Z,16.80
2019-04-23T23:57:24.266Z,16.70
